»·PEaware :: UAL548 KABQ-KLAS

UAL548 :: KABQ-KLAS

FLIGHT INFORMATION

Flight Status: Arrived
Operator:
United Airlines
More flights by this operator :: More flights under this callsign
Pilot: Austin B. (27954)
Aircraft: Unknown
(B788)
More flights by this aircraft type
Origin: KABQ Albuquerque Intl Sunport
United States
Destination: KLAS McCarran Intl
United States
More flights between these airports :: More routes between these airports
Route: +RDRNR3 GUP PGS TYSSN5
File this flight plan on PilotEdge
Remarks:
Altitude:
(Current/Filed)
38,000ft
Speed:
(Current/Filed)
440kts
Departed: 22-May-20 08:33 PM
Arrived: 22-May-20 09:46 PM
Distance/Time
Traveled:
421nm/1:13
Distance/Time
To Go:
Arrived

Flight Plot

Page will automatically refresh every two minutes.


Map Options




Map Legend


Flown Route
Filed Route
Departure Airport
Arrival Airport
Navaid (VOR, NDB)
Fix

Horizontal Profiles

Position Reports

Time Latitude Longitude Heading Altitude Ground
Speed
22-May-20 20:04 35.046888 -106.616602 0 5368ft 0kts
22-May-20 20:05 35.046888 -106.616602 0 5368ft 0kts
22-May-20 20:06 35.046888 -106.616602 0 5368ft 0kts
22-May-20 20:07 35.046888 -106.616602 0 5368ft 0kts
22-May-20 20:08 35.046888 -106.616602 0 5368ft 0kts
22-May-20 20:09 35.046888 -106.616602 0 5368ft 0kts
22-May-20 20:10 35.046888 -106.616602 0 5368ft 0kts
22-May-20 20:11 35.046888 -106.616602 0 5368ft 0kts
22-May-20 20:12 35.046888 -106.616602 0 5368ft 0kts
22-May-20 20:13 35.046888 -106.616602 0 5368ft 0kts
22-May-20 20:14 35.046888 -106.616602 0 5368ft 0kts
22-May-20 20:15 35.046888 -106.616602 0 5368ft 0kts
22-May-20 20:16 35.046888 -106.616602 0 5368ft 0kts
22-May-20 20:17 35.046888 -106.616602 0 5368ft 0kts
22-May-20 20:18 35.046888 -106.616602 0 5368ft 0kts
22-May-20 20:19 35.046888 -106.616602 0 5368ft 0kts
22-May-20 20:20 35.046888 -106.616602 0 5368ft 0kts
22-May-20 20:21 35.046888 -106.616602 0 5368ft 0kts
22-May-20 20:22 35.046762 -106.616601 359 5368ft 2kts
22-May-20 20:23 35.046084 -106.616477 300 5368ft 2kts
22-May-20 20:24 35.046020 -106.616010 271 5368ft 0kts
22-May-20 20:25 35.046020 -106.616013 271 5368ft 0kts
22-May-20 20:26 35.046038 -106.617226 271 5368ft 10kts
22-May-20 20:27 35.045646 -106.619705 241 5368ft 5kts
22-May-20 20:28 35.045190 -106.621254 188 5368ft 0kts
22-May-20 20:29 35.045187 -106.621255 188 5368ft 0kts
22-May-20 20:30 35.045179 -106.621256 188 5368ft 0kts
22-May-20 20:31 35.044351 -106.620398 91 5368ft 7kts
22-May-20 20:32 35.044187 -106.578908 93 6640ft 202kts
22-May-20 20:33 35.070308 -106.514309 7 9991ft 262kts
22-May-20 20:34 35.102869 -106.576918 244 12460ft 280kts
22-May-20 20:35 35.068393 -106.658312 282 14673ft 322kts
22-May-20 20:36 35.093715 -106.776488 275 17578ft 380kts
22-May-20 20:37 35.113451 -106.905657 277 20571ft 394kts
22-May-20 20:38 35.133697 -107.039820 278 23587ft 407kts
22-May-20 20:39 35.154257 -107.177772 277 26588ft 420kts
22-May-20 20:40 35.176336 -107.320304 278 29589ft 435kts
22-May-20 20:41 35.200346 -107.468574 278 32588ft 451kts
22-May-20 20:42 35.224446 -107.618770 278 35582ft 447kts
22-May-20 20:43 35.247975 -107.766646 279 37898ft 441kts
22-May-20 20:44 35.271053 -107.912858 279 38064ft 433kts
22-May-20 20:45 35.293617 -108.057031 279 38079ft 430kts
22-May-20 20:46 35.315905 -108.200568 279 38075ft 429kts
22-May-20 20:47 35.338196 -108.344570 280 38054ft 429kts
22-May-20 20:48 35.372842 -108.484436 285 38038ft 431kts
22-May-20 20:49 35.410075 -108.624406 285 38038ft 432kts
22-May-20 20:50 35.447289 -108.764234 285 38047ft 432kts
22-May-20 20:51 35.479653 -108.905371 271 38022ft 430kts
22-May-20 20:52 35.485226 -109.051083 272 38039ft 425kts
22-May-20 20:53 35.492127 -109.195761 272 38053ft 423kts
22-May-20 20:54 35.499011 -109.339550 272 38055ft 423kts
22-May-20 20:55 35.505770 -109.484197 272 38040ft 424kts
22-May-20 20:56 35.512344 -109.628605 272 38030ft 424kts
22-May-20 20:57 35.518748 -109.773070 272 38018ft 423kts
22-May-20 20:58 35.524972 -109.917584 272 38015ft 424kts
22-May-20 20:59 35.531038 -110.062112 272 37992ft 424kts
22-May-20 21:00 35.536936 -110.206853 272 38002ft 424kts
22-May-20 21:01 35.542650 -110.351468 272 37983ft 424kts
22-May-20 21:02 35.548209 -110.496557 272 37976ft 424kts
22-May-20 21:03 35.553575 -110.641091 272 37994ft 424kts
22-May-20 21:04 35.558781 -110.786028 272 37998ft 423kts
22-May-20 21:05 35.563793 -110.930280 271 38005ft 423kts
22-May-20 21:06 35.568647 -111.075102 271 38023ft 423kts
22-May-20 21:07 35.573310 -111.219357 271 38028ft 422kts
22-May-20 21:08 35.577800 -111.363526 271 38025ft 421kts
22-May-20 21:09 35.582103 -111.507174 271 38034ft 421kts
22-May-20 21:10 35.586241 -111.651215 271 38032ft 421kts
22-May-20 21:11 35.590203 -111.794948 271 38049ft 420kts
22-May-20 21:12 35.593981 -111.938207 270 38042ft 420kts
22-May-20 21:14 35.597604 -112.082057 270 38034ft 420kts
22-May-20 21:15 35.601044 -112.225411 270 38046ft 419kts
22-May-20 21:16 35.604312 -112.368683 270 38044ft 419kts
22-May-20 21:17 35.607399 -112.511583 270 38043ft 419kts
22-May-20 21:18 35.610332 -112.654879 270 38043ft 419kts
22-May-20 21:19 35.613095 -112.798362 270 38019ft 419kts
22-May-20 21:20 35.615651 -112.939834 270 37069ft 409kts
22-May-20 21:21 35.617994 -113.078182 270 35157ft 400kts
22-May-20 21:22 35.620135 -113.214165 270 33173ft 394kts
22-May-20 21:23 35.622089 -113.346863 270 31172ft 383kts
22-May-20 21:24 35.623840 -113.475695 270 29073ft 372kts
22-May-20 21:25 35.632512 -113.600892 279 26870ft 364kts
22-May-20 21:26 35.650082 -113.721601 277 24595ft 356kts
22-May-20 21:27 35.666978 -113.840708 277 22286ft 349kts
22-May-20 21:28 35.683402 -113.957312 277 19983ft 342kts
22-May-20 21:29 35.699405 -114.071725 277 17678ft 335kts
22-May-20 21:29 35.712403 -114.165305 277 15756ft 329kts
22-May-20 21:31 35.730028 -114.293217 276 13068ft 320kts
22-May-20 21:32 35.764102 -114.386540 317 12021ft 313kts
22-May-20 21:32 35.831676 -114.424747 333 11985ft 325kts
22-May-20 21:34 35.929878 -114.471126 334 11063ft 316kts
22-May-20 21:34 35.997080 -114.502670 334 10079ft 301kts
22-May-20 21:35 36.051540 -114.564250 266 9535ft 271kts
22-May-20 21:36 36.059683 -114.650525 276 8158ft 245kts
22-May-20 21:37 36.075250 -114.729469 271 7643ft 217kts
22-May-20 21:38 36.074510 -114.800515 260 7317ft 203kts
22-May-20 21:39 36.073708 -114.871771 265 6164ft 210kts
22-May-20 21:40 36.073952 -114.937758 263 5140ft 178kts
22-May-20 21:41 36.073744 -114.996364 265 4245ft 167kts
22-May-20 21:42 36.073698 -115.051945 265 3382ft 151kts
22-May-20 21:43 36.073659 -115.098958 267 2653ft 129kts
22-May-20 21:44 36.073658 -115.137672 269 2194ft 49kts
22-May-20 21:45 36.076191 -115.146542 0 2194ft 19kts
22-May-20 21:46 36.078964 -115.147371 0 2194ft 7kts
22-May-20 21:47 36.080750 -115.148156 44 2194ft 2kts
22-May-20 21:48 36.080951 -115.147807 55 2194ft 0kts
22-May-20 21:49 36.080951 -115.147807 55 2194ft 0kts
22-May-20 21:50 36.080951 -115.147807 55 2194ft 0kts

Navigation Log

Ident Type
Flight plan parsing failed, navigation log unavailable